createdAt,value
2022-11-18T00:01:05.958Z,99930.67
2022-11-18T00:03:32.341Z,99928.02
2022-11-18T00:05:58.722Z,99925.21
2022-11-18T00:08:25.361Z,99926.38
2022-11-18T00:10:52.147Z,99924.35
2022-11-18T00:13:37.175Z,99923.56
2022-11-18T00:16:04.658Z,99921.33
2022-11-18T00:18:31.586Z,99924.67
2022-11-18T00:21:05.080Z,99925.90
2022-11-18T00:23:31.426Z,99928.37
2022-11-18T00:26:01.725Z,99927.34
2022-11-18T00:28:28.053Z,99930.10
2022-11-18T00:30:59.748Z,99928.99
2022-11-18T00:33:26.083Z,99928.59
2022-11-18T00:35:53.516Z,99924.05
2022-11-18T00:38:19.841Z,99922.40
2022-11-18T00:40:46.175Z,99924.60
2022-11-18T00:43:12.489Z,99919.52
2022-11-18T00:45:38.936Z,99917.40
2022-11-18T00:48:05.370Z,99914.27
2022-11-18T00:50:32.901Z,99911.43
2022-11-18T00:52:59.233Z,99913.39
2022-11-18T00:55:25.559Z,99913.74
2022-11-18T00:57:52.985Z,99913.08
2022-11-18T01:00:19.385Z,99916.14
2022-11-18T01:02:45.748Z,99912.25
2022-11-18T01:05:12.059Z,99913.11
2022-11-18T01:07:38.506Z,99917.58
2022-11-18T01:10:05.347Z,99922.30
2022-11-18T01:12:54.252Z,99926.48
2022-11-18T01:15:21.026Z,99923.04
2022-11-18T01:17:47.457Z,99918.08
2022-11-18T01:20:15.018Z,99915.09
2022-11-18T01:22:41.388Z,99919.48
2022-11-18T01:25:07.987Z,99920.45
2022-11-18T01:27:34.422Z,99919.15
2022-11-18T01:30:00.959Z,99912.31
2022-11-18T01:32:27.698Z,99909.65
2022-11-18T01:34:54.132Z,99904.14
2022-11-18T01:37:20.568Z,99897.70
2022-11-18T01:39:46.979Z,99897.41
2022-11-18T01:42:15.270Z,99899.98
2022-11-18T01:45:01.541Z,99898.36
2022-11-18T01:47:34.201Z,99893.92
2022-11-18T01:50:01.240Z,99896.84
2022-11-18T01:52:28.699Z,99900.83
2022-11-18T01:54:56.913Z,99906.20
2022-11-18T01:57:27.019Z,99915.63
2022-11-18T01:59:55.306Z,99919.98
2022-11-18T02:02:22.253Z,99921.08
2022-11-18T02:04:49.684Z,99922.98
2022-11-18T02:07:16.625Z,99918.92
2022-11-18T02:09:43.573Z,99905.20
2022-11-18T02:12:11.362Z,99911.82
2022-11-18T02:14:40.392Z,99906.02
2022-11-18T02:17:09.898Z,99903.74
2022-11-18T02:19:39.504Z,99902.15
2022-11-18T02:22:19.009Z,99901.01
2022-11-18T02:24:51.651Z,99901.54
2022-11-18T02:27:21.078Z,99897.98
2022-11-18T02:29:53.695Z,99895.88
2022-11-18T02:32:27.005Z,99891.56
2022-11-18T02:35:00.801Z,99892.65
2022-11-18T02:37:37.222Z,99891.64
2022-11-18T02:40:03.707Z,99892.31
2022-11-18T02:42:32.500Z,99891.98
2022-11-18T02:45:03.096Z,99887.90
2022-11-18T02:47:31.306Z,99889.80
2022-11-18T02:50:00.972Z,99887.52
2022-11-18T02:52:27.726Z,99881.06
2022-11-18T02:54:55.263Z,99874.67
2022-11-18T02:57:23.437Z,99870.17
2022-11-18T02:59:50.085Z,99871.34
2022-11-18T03:02:17.694Z,99875.73
2022-11-18T03:04:48.776Z,99880.74
2022-11-18T03:07:24.559Z,99879.67
2022-11-18T03:09:51.944Z,99877.48
2022-11-18T03:12:18.305Z,99873.85
2022-11-18T03:14:50.908Z,99875.40
2022-11-18T03:17:35.977Z,99876.45
2022-11-18T03:20:21.537Z,99874.36
2022-11-18T03:23:08.251Z,99878.53
2022-11-18T03:25:43.493Z,99878.09
2022-11-18T03:28:14.031Z,99876.77
2022-11-18T03:30:54.075Z,99875.16
2022-11-18T03:33:24.408Z,99871.38
2022-11-18T03:35:52.876Z,99871.14
2022-11-18T03:38:23.561Z,99870.78
2022-11-18T03:40:53.832Z,99874.38
2022-11-18T03:43:22.931Z,99869.18
2022-11-18T03:45:56.297Z,99865.98
2022-11-18T03:48:25.557Z,99866.75
2022-11-18T03:50:54.919Z,99871.73
2022-11-18T03:53:22.387Z,99871.10
2022-11-18T03:55:52.386Z,99863.62
2022-11-18T03:58:24.372Z,99867.68
2022-11-18T04:00:53.976Z,99865.87
2022-11-18T04:03:20.483Z,99866.33
2022-11-18T04:05:51.115Z,99867.48
2022-11-18T04:08:28.974Z,99873.44
2022-11-18T04:10:59.696Z,99875.31
2022-11-18T04:13:32.330Z,99877.34
2022-11-18T04:15:58.967Z,99877.80
2022-11-18T04:18:25.404Z,99876.89
2022-11-18T04:20:51.752Z,99880.86
2022-11-18T04:23:18.132Z,99881.77
2022-11-18T04:25:44.599Z,99883.42
2022-11-18T04:28:11.099Z,99880.83
2022-11-18T04:30:37.431Z,99883.59
2022-11-18T04:33:04.601Z,99879.39
2022-11-18T04:35:31.050Z,99881.95
2022-11-18T04:37:57.487Z,99879.02
2022-11-18T04:40:23.848Z,99879.34
2022-11-18T04:42:50.275Z,99876.80
2022-11-18T04:45:16.786Z,99879.30
2022-11-18T04:47:43.121Z,99878.42
2022-11-18T04:50:09.615Z,99881.33
2022-11-18T04:52:36.014Z,99879.55
2022-11-18T04:55:02.694Z,99878.05
2022-11-18T04:57:29.069Z,99881.17
2022-11-18T04:59:55.416Z,99885.38
2022-11-18T05:02:21.817Z,99883.89
2022-11-18T05:04:48.153Z,99883.75
2022-11-18T05:07:15.171Z,99885.03
2022-11-18T05:09:41.841Z,99886.15
2022-11-18T05:12:31.043Z,99890.34
2022-11-18T05:14:57.748Z,99894.81
2022-11-18T05:17:24.124Z,99891.54
2022-11-18T05:19:50.451Z,99896.80
2022-11-18T05:22:16.952Z,99898.40
2022-11-18T05:24:43.383Z,99900.02
2022-11-18T05:27:10.590Z,99909.52
2022-11-18T05:29:37.068Z,99908.48
2022-11-18T05:32:03.604Z,99907.07
2022-11-18T05:34:30.007Z,99906.20
2022-11-18T05:36:56.348Z,99908.60
2022-11-18T05:39:22.803Z,99910.15
2022-11-18T05:42:08.087Z,99914.10
2022-11-18T05:44:34.469Z,99917.15
2022-11-18T05:47:00.897Z,99920.10
2022-11-18T05:49:27.430Z,99921.90
2022-11-18T05:51:53.813Z,99917.48
2022-11-18T05:54:21.169Z,99921.62
2022-11-18T05:56:47.808Z,99920.62
2022-11-18T05:59:14.390Z,99927.02
2022-11-18T06:01:43.792Z,99932.63
2022-11-18T06:04:14.146Z,99935.27
2022-11-18T06:06:41.549Z,99941.84
2022-11-18T06:09:08.312Z,99938.58
2022-11-18T06:11:41.463Z,99943.59
2022-11-18T06:14:13.786Z,99947.42
2022-11-18T06:16:43.740Z,99950.27
2022-11-18T06:19:10.346Z,99955.90
2022-11-18T06:21:36.753Z,99957.65
2022-11-18T06:24:03.498Z,99962.11
2022-11-18T06:26:30.100Z,99965.31
2022-11-18T06:28:56.687Z,99963.34
2022-11-18T06:31:23.074Z,99968.81
2022-11-18T06:33:49.515Z,99966.09
2022-11-18T06:36:15.872Z,99974.58
2022-11-18T06:38:42.272Z,99977.44
2022-11-18T06:41:08.805Z,99982.89
2022-11-18T06:43:41.209Z,99985.39
2022-11-18T06:46:45.435Z,99993.63
2022-11-18T06:49:12.108Z,99991.54
2022-11-18T06:51:39.598Z,99988.35
2022-11-18T06:54:10.378Z,99996.86
2022-11-18T06:56:37.587Z,100000.09
2022-11-18T06:59:04.213Z,100001.19
2022-11-18T07:01:31.896Z,100002.20
2022-11-18T07:03:59.205Z,100001.45
2022-11-18T07:06:27.213Z,100001.69
2022-11-18T07:08:53.940Z,100005.92
2022-11-18T07:11:21.514Z,100006.29
2022-11-18T07:13:47.884Z,100014.77
2022-11-18T07:16:15.761Z,100012.17
2022-11-18T07:18:43.224Z,100016.10
2022-11-18T07:21:11.325Z,100019.98
2022-11-18T07:23:38.392Z,100022.91
2022-11-18T07:26:05.336Z,100025.50
2022-11-18T07:28:32.215Z,100020.55
2022-11-18T07:31:03.180Z,100022.52
2022-11-18T07:33:30.407Z,100022.42
2022-11-18T07:36:00.190Z,100024.88
2022-11-18T07:38:26.617Z,100024.42
2022-11-18T07:40:52.962Z,100030.25
2022-11-18T07:43:19.387Z,100030.40
2022-11-18T07:45:45.744Z,100032.00
2022-11-18T07:48:12.151Z,100026.63
2022-11-18T07:50:41.953Z,100026.51
2022-11-18T07:53:10.808Z,100029.60
2022-11-18T07:55:37.145Z,100031.90
2022-11-18T07:58:03.489Z,100032.05
2022-11-18T08:00:29.950Z,100036.64
2022-11-18T08:02:56.383Z,100034.70
2022-11-18T08:05:22.862Z,100035.23
2022-11-18T08:07:49.296Z,100036.86
2022-11-18T08:10:15.816Z,100039.91
2022-11-18T08:12:42.280Z,100037.23
2022-11-18T08:15:08.845Z,100041.31
2022-11-18T08:17:35.215Z,100041.88
2022-11-18T08:20:01.626Z,100043.23
2022-11-18T08:22:28.060Z,100046.98
2022-11-18T08:24:54.494Z,100050.85
2022-11-18T08:27:20.869Z,100053.25
2022-11-18T08:29:47.286Z,100056.85
2022-11-18T08:32:13.794Z,100056.48
2022-11-18T08:34:40.227Z,100059.30
2022-11-18T08:37:06.699Z,100057.13
2022-11-18T08:39:33.096Z,100055.00
2022-11-18T08:41:59.620Z,100059.21
2022-11-18T08:44:26.115Z,100059.59
2022-11-18T08:46:52.493Z,100059.63
2022-11-18T08:49:19.191Z,100064.38
2022-11-18T08:51:45.878Z,100067.27
2022-11-18T08:54:12.418Z,100072.92
2022-11-18T08:56:39.769Z,100072.20
2022-11-18T08:59:06.817Z,100076.39
2022-11-18T09:01:33.456Z,100079.60
2022-11-18T09:04:00.373Z,100078.73
2022-11-18T09:06:26.723Z,100082.66
2022-11-18T09:08:53.193Z,100085.11
2022-11-18T09:11:21.248Z,100080.05
2022-11-18T09:14:26.062Z,100074.53
2022-11-18T09:16:34.895Z,100073.03
2022-11-18T09:19:13.089Z,100079.91
2022-11-18T09:21:47.222Z,100083.05
2022-11-18T09:24:13.653Z,100086.84
2022-11-18T09:26:40.598Z,100087.58
2022-11-18T09:29:08.056Z,100094.91
2022-11-18T09:31:34.555Z,100095.52
2022-11-18T09:34:01.232Z,100094.33
2022-11-18T09:36:28.198Z,100093.27
2022-11-18T09:38:54.632Z,100093.02
2022-11-18T09:41:39.260Z,100093.34
2022-11-18T09:44:13.175Z,100092.34
2022-11-18T09:46:42.703Z,100096.55
2022-11-18T09:49:19.318Z,100094.11
2022-11-18T09:51:47.332Z,100095.48
2022-11-18T09:54:24.517Z,100095.28
2022-11-18T09:56:52.192Z,100094.95
2022-11-18T09:59:21.738Z,100095.43
2022-11-18T10:01:49.288Z,100095.05
2022-11-18T10:04:17.143Z,100095.45
2022-11-18T10:06:44.635Z,100095.82
2022-11-18T10:09:11.506Z,100097.89
2022-11-18T10:11:46.273Z,100091.95
2022-11-18T10:14:39.508Z,100093.98
2022-11-18T10:17:27.891Z,100093.02
2022-11-18T10:19:54.391Z,100093.40
2022-11-18T10:22:24.349Z,100090.50
2022-11-18T10:24:52.943Z,100087.79
2022-11-18T10:27:19.736Z,100089.61
2022-11-18T10:29:52.484Z,100089.17
2022-11-18T10:32:19.392Z,100083.62
2022-11-18T10:34:48.024Z,100082.10
2022-11-18T10:37:31.230Z,100082.42
2022-11-18T10:40:22.730Z,100085.10
2022-11-18T10:42:49.096Z,100077.40
2022-11-18T10:45:22.526Z,100079.25
2022-11-18T10:47:59.233Z,100078.16
2022-11-18T10:50:28.239Z,100085.05
2022-11-18T10:52:54.575Z,100087.43
2022-11-18T10:55:22.187Z,100084.94
2022-11-18T10:57:49.799Z,100083.09
2022-11-18T11:00:36.760Z,100081.29
2022-11-18T11:03:20.045Z,100078.98
2022-11-18T11:05:46.526Z,100082.16
2022-11-18T11:08:36.555Z,100088.49
2022-11-18T11:11:04.176Z,100083.45
2022-11-18T11:13:31.954Z,100084.20
2022-11-18T11:16:01.700Z,100089.48
2022-11-18T11:18:41.844Z,100087.35
2022-11-18T11:21:19.236Z,100083.84
2022-11-18T11:23:46.101Z,100087.63
2022-11-18T11:29:05.429Z,100085.77
2022-11-18T11:31:37.562Z,100091.18
2022-11-18T11:34:04.033Z,100092.17
2022-11-18T11:36:30.465Z,100091.59
2022-11-18T11:39:04.823Z,100094.28
2022-11-18T11:41:43.433Z,100093.17
2022-11-18T11:44:12.547Z,100091.58
2022-11-18T11:46:38.906Z,100095.77
2022-11-18T11:49:20.768Z,100095.92
2022-11-18T11:51:51.359Z,100095.63
2022-11-18T11:54:17.897Z,100096.34
2022-11-18T11:56:46.963Z,100093.94
2022-11-18T11:59:18.707Z,100098.69
2022-11-18T12:01:54.287Z,100097.47
2022-11-18T12:04:29.949Z,100097.26
2022-11-18T12:06:57.683Z,100092.89
2022-11-18T12:09:33.269Z,100093.61
2022-11-18T12:11:59.612Z,100095.05
2022-11-18T12:14:39.942Z,100093.38
2022-11-18T12:17:12.997Z,100095.08
2022-11-18T12:19:39.431Z,100093.21
2022-11-18T12:22:06.479Z,100095.27
2022-11-18T12:24:35.916Z,100094.88
2022-11-18T12:27:10.379Z,100097.16
2022-11-18T12:29:42.591Z,100097.58
2022-11-18T12:32:24.112Z,100098.73
2022-11-18T12:35:13.786Z,100094.86
2022-11-18T12:37:43.454Z,100094.77
2022-11-18T12:40:11.027Z,100094.43
2022-11-18T12:42:56.216Z,100096.23
2022-11-18T12:45:40.956Z,100095.34
2022-11-18T12:48:27.024Z,100099.70
2022-11-18T12:50:55.835Z,100100.35
2022-11-18T12:53:28.545Z,100100.98
2022-11-18T12:55:55.383Z,100097.81
2022-11-18T12:58:22.893Z,100102.49
2022-11-18T13:00:52.460Z,100099.59
2022-11-18T13:03:24.274Z,100102.74
2022-11-18T13:05:57.972Z,100105.01
2022-11-18T13:08:25.117Z,100106.64
2022-11-18T13:11:13.119Z,100111.61
2022-11-18T13:13:40.884Z,100109.32
2022-11-18T13:16:52.316Z,100106.02
2022-11-18T13:19:22.996Z,100106.27
2022-11-18T13:22:11.918Z,100107.77
2022-11-18T13:24:43.336Z,100105.67
2022-11-18T13:27:17.775Z,100108.66
2022-11-18T13:30:00.485Z,100115.14
2022-11-18T13:32:28.182Z,100117.96
2022-11-18T13:34:55.993Z,100118.70
2022-11-18T13:37:23.904Z,100121.01
2022-11-18T13:39:50.785Z,100123.32
2022-11-18T13:42:19.238Z,100127.11
2022-11-18T13:44:51.066Z,100127.64
2022-11-18T13:47:36.559Z,100128.66
2022-11-18T13:50:10.983Z,100129.27
2022-11-18T13:52:46.400Z,100130.98
2022-11-18T13:55:19.052Z,100138.44
2022-11-18T13:57:51.060Z,100137.55
2022-11-18T14:00:22.680Z,100144.55
2022-11-18T14:02:54.076Z,100144.56
2022-11-18T14:05:21.840Z,100146.80
2022-11-18T14:07:59.756Z,100144.82
2022-11-18T14:10:40.728Z,100150.24
2022-11-18T14:13:15.979Z,100150.71
2022-11-18T14:15:44.255Z,100154.27
2022-11-18T14:18:17.557Z,100150.71
2022-11-18T14:20:49.601Z,100151.41
2022-11-18T14:23:16.738Z,100148.22
2022-11-18T14:25:44.522Z,100151.05
2022-11-18T14:28:17.145Z,100153.17
2022-11-18T14:30:57.633Z,100157.38
2022-11-18T14:33:25.040Z,100157.21
2022-11-18T14:35:54.387Z,100160.61
2022-11-18T14:38:40.583Z,100162.70
2022-11-18T14:41:12.426Z,100160.80
2022-11-18T14:43:39.101Z,100163.33
2022-11-18T14:46:25.783Z,100161.08
2022-11-18T14:48:52.987Z,100162.67
2022-11-18T14:51:19.602Z,100168.22
2022-11-18T14:53:45.954Z,100171.27
2022-11-18T14:56:22.092Z,100177.91
2022-11-18T14:58:48.449Z,100176.33
2022-11-18T15:01:14.978Z,100175.19
2022-11-18T15:03:41.418Z,100173.38
2022-11-18T15:06:15.156Z,100177.25
2022-11-18T15:08:42.769Z,100179.52
2022-11-18T15:11:09.443Z,100183.98
2022-11-18T15:13:36.105Z,100187.00
2022-11-18T15:16:20.359Z,100188.76
2022-11-18T15:18:47.887Z,100191.33
2022-11-18T15:21:14.947Z,100193.14
2022-11-18T15:23:41.641Z,100195.75
2022-11-18T15:26:21.828Z,100198.17
2022-11-18T15:28:49.115Z,100197.16
2022-11-18T15:31:16.231Z,100196.09
2022-11-18T15:33:43.157Z,100199.23
2022-11-18T15:36:13.846Z,100202.58
2022-11-18T15:38:40.582Z,100206.26
2022-11-18T15:41:07.162Z,100208.21
2022-11-18T15:43:33.555Z,100215.02
2022-11-18T15:45:59.875Z,100215.89
2022-11-18T15:48:26.214Z,100222.79
2022-11-18T15:50:54.344Z,100219.95
2022-11-18T15:53:20.923Z,100220.98
2022-11-18T15:55:47.303Z,100226.52
2022-11-18T15:58:13.611Z,100223.96
2022-11-18T16:00:39.957Z,100229.27
2022-11-18T16:03:06.801Z,100229.80
2022-11-18T16:05:33.121Z,100237.31
2022-11-18T16:07:59.794Z,100238.79
2022-11-18T16:10:45.090Z,100239.60
2022-11-18T16:13:11.460Z,100245.54
2022-11-18T16:15:43.729Z,100247.27
2022-11-18T16:18:10.938Z,100249.84
2022-11-18T16:20:37.304Z,100257.88
2022-11-18T16:23:03.903Z,100259.02
2022-11-18T16:25:30.269Z,100258.00
2022-11-18T16:28:00.791Z,100263.67
2022-11-18T16:30:49.075Z,100266.89
2022-11-18T16:33:15.440Z,100267.52
2022-11-18T16:35:48.425Z,100268.59
2022-11-18T16:38:14.802Z,100270.98
2022-11-18T16:40:41.171Z,100270.91
2022-11-18T16:43:07.974Z,100274.33
2022-11-18T16:45:34.365Z,100277.95
2022-11-18T16:48:01.334Z,100279.34
2022-11-18T16:50:27.659Z,100277.98
2022-11-18T16:52:54.089Z,100280.27
2022-11-18T16:55:20.443Z,100283.40
2022-11-18T16:57:47.191Z,100285.91
2022-11-18T17:00:13.932Z,100285.83
2022-11-18T17:02:40.449Z,100287.03
2022-11-18T17:05:07.052Z,100290.60
2022-11-18T17:07:38.268Z,100293.30
2022-11-18T17:10:05.964Z,100294.73
2022-11-18T17:12:32.307Z,100294.42
2022-11-18T17:14:58.717Z,100293.26
2022-11-18T17:17:25.214Z,100289.55
2022-11-18T17:19:51.649Z,100293.91
2022-11-18T17:22:18.962Z,100296.98
2022-11-18T17:24:45.420Z,100298.02
2022-11-18T17:27:11.813Z,100297.69
2022-11-18T17:29:38.157Z,100299.52
2022-11-18T17:32:04.692Z,100299.44
2022-11-18T17:34:31.019Z,100304.02
2022-11-18T17:37:03.090Z,100305.84
2022-11-18T17:39:32.901Z,100311.17
2022-11-18T17:42:14.552Z,100316.67
2022-11-18T17:44:40.973Z,100315.16
2022-11-18T17:47:07.332Z,100315.73
2022-11-18T17:49:33.687Z,100314.33
2022-11-18T17:52:00.010Z,100318.44
2022-11-18T17:54:27.529Z,100321.04
2022-11-18T17:56:53.875Z,100320.04
2022-11-18T17:59:20.743Z,100322.45
2022-11-18T18:01:47.141Z,100322.16
2022-11-18T18:04:14.685Z,100322.61
2022-11-18T18:06:41.096Z,100321.54
2022-11-18T18:09:07.556Z,100323.48
2022-11-18T18:11:33.969Z,100325.09
2022-11-18T18:14:12.236Z,100329.92
2022-11-18T18:16:40.231Z,100334.90
2022-11-18T18:19:07.326Z,100335.79
2022-11-18T18:21:35.065Z,100336.33
2022-11-18T18:24:01.651Z,100340.71
2022-11-18T18:26:31.451Z,100338.83
2022-11-18T18:28:59.057Z,100341.02
2022-11-18T18:31:26.124Z,100342.79
2022-11-18T18:33:52.486Z,100346.63
2022-11-18T18:36:19.632Z,100348.05
2022-11-18T18:38:46.205Z,100348.08
2022-11-18T18:41:14.397Z,100349.40
2022-11-18T18:43:41.253Z,100354.36
2022-11-18T18:46:35.935Z,100354.17
2022-11-18T18:49:02.380Z,100359.13
2022-11-18T18:51:30.186Z,100360.60
2022-11-18T18:53:57.431Z,100362.02
2022-11-18T18:56:24.352Z,100362.52
2022-11-18T18:58:50.697Z,100364.46
2022-11-18T19:01:18.051Z,100368.02
2022-11-18T19:03:45.146Z,100367.09
2022-11-18T19:06:42.519Z,100367.63
2022-11-18T19:09:00.909Z,100367.52
2022-11-18T19:11:46.366Z,100370.98
2022-11-18T19:14:13.973Z,100377.52
2022-11-18T19:16:40.935Z,100379.14
2022-11-18T19:19:08.288Z,100377.44
2022-11-18T19:21:35.248Z,100382.98
2022-11-18T19:24:02.008Z,100383.43
2022-11-18T19:26:28.503Z,100382.71
2022-11-18T19:28:55.231Z,100383.27
2022-11-18T19:31:21.594Z,100383.34
2022-11-18T19:33:48.406Z,100386.55
2022-11-18T19:36:15.262Z,100386.39
2022-11-18T19:38:41.885Z,100386.75
2022-11-18T19:41:09.548Z,100389.50
2022-11-18T19:43:36.186Z,100389.41
2022-11-18T19:46:03.337Z,100392.65
2022-11-18T19:48:29.875Z,100396.98
2022-11-18T19:51:10.501Z,100398.95
2022-11-18T19:53:39.181Z,100401.15
2022-11-18T19:56:08.513Z,100401.25
2022-11-18T19:58:35.611Z,100402.86
2022-11-18T20:01:09.379Z,100404.56
2022-11-18T20:03:35.918Z,100408.39
2022-11-18T20:06:02.303Z,100411.88
2022-11-18T20:08:30.864Z,100414.61
2022-11-18T20:10:59.567Z,100416.01
2022-11-18T20:13:25.957Z,100417.70
2022-11-18T20:15:52.427Z,100415.89
2022-11-18T20:18:21.651Z,100418.23
2022-11-18T20:20:48.125Z,100422.45
2022-11-18T20:23:14.646Z,100422.55
2022-11-18T20:25:41.197Z,100424.29
2022-11-18T20:28:07.551Z,100425.25
2022-11-18T20:30:33.919Z,100423.05
2022-11-18T20:33:00.323Z,100426.52
2022-11-18T20:35:26.727Z,100428.13
2022-11-18T20:37:53.163Z,100427.40
2022-11-18T20:40:19.680Z,100427.60
2022-11-18T20:43:04.877Z,100423.27
2022-11-18T20:45:31.250Z,100425.91
2022-11-18T20:47:57.608Z,100427.45
2022-11-18T20:50:23.999Z,100427.81
2022-11-18T20:52:50.348Z,100429.77
2022-11-18T20:55:16.773Z,100434.77
2022-11-18T20:57:43.203Z,100432.48
2022-11-18T21:00:10.011Z,100434.27
2022-11-18T21:02:36.455Z,100437.48
2022-11-18T21:05:02.879Z,100440.45
2022-11-18T21:07:31.732Z,100441.72
2022-11-18T21:09:58.084Z,100440.58
2022-11-18T21:12:24.896Z,100439.16
2022-11-18T21:14:51.251Z,100443.61
2022-11-18T21:17:17.612Z,100441.09
2022-11-18T21:19:48.377Z,100442.77
2022-11-18T21:22:15.081Z,100444.49
2022-11-18T21:24:41.788Z,100446.17
2022-11-18T21:27:08.117Z,100448.60
2022-11-18T21:29:34.576Z,100450.83
2022-11-18T21:32:01.661Z,100454.20
2022-11-18T21:34:28.358Z,100457.83
2022-11-18T21:36:55.414Z,100461.71
2022-11-18T21:39:23.269Z,100464.20
2022-11-18T21:41:55.319Z,100465.61
2022-11-18T21:44:23.595Z,100464.48
2022-11-18T21:46:50.136Z,100464.30
2022-11-18T21:49:16.881Z,100466.94
2022-11-18T21:51:43.864Z,100470.84
2022-11-18T21:54:11.900Z,100474.45
2022-11-18T21:56:38.274Z,100476.52
2022-11-18T21:59:05.493Z,100473.08
2022-11-18T22:01:32.744Z,100477.41
2022-11-18T22:04:00.501Z,100478.92
2022-11-18T22:06:31.016Z,100479.73
2022-11-18T22:08:57.368Z,100477.81
2022-11-18T22:11:25.028Z,100481.00
2022-11-18T22:13:52.362Z,100479.44
2022-11-18T22:16:20.165Z,100479.95
2022-11-18T22:18:51.578Z,100484.23
2022-11-18T22:21:20.530Z,100482.63
2022-11-18T22:23:47.243Z,100486.36
2022-11-18T22:26:15.140Z,100488.48
2022-11-18T22:28:41.768Z,100491.34
2022-11-18T22:31:21.311Z,100491.98
2022-11-18T22:33:48.254Z,100495.00
2022-11-18T22:36:15.545Z,100497.84
2022-11-18T22:38:45.094Z,100501.52
2022-11-18T22:41:34.180Z,100502.61
2022-11-18T22:44:05.690Z,100503.23
2022-11-18T22:46:34.517Z,100500.48
2022-11-18T22:49:01.199Z,100503.16
2022-11-18T22:51:27.552Z,100502.05
2022-11-18T22:54:15.775Z,100501.92
2022-11-18T22:56:40.532Z,100502.23
2022-11-18T22:59:07.113Z,100503.80
2022-11-18T23:01:33.493Z,100502.39
2022-11-18T23:03:59.859Z,100504.52
2022-11-18T23:06:26.221Z,100504.75
2022-11-18T23:08:52.561Z,100505.21
2022-11-18T23:11:37.633Z,100504.41
2022-11-18T23:14:05.640Z,100502.98
2022-11-18T23:16:33.113Z,100504.92
2022-11-18T23:19:00.527Z,100511.14
2022-11-18T23:21:26.852Z,100507.01
2022-11-18T23:23:53.476Z,100510.30
2022-11-18T23:26:20.251Z,100511.23
2022-11-18T23:28:46.933Z,100510.09
2022-11-18T23:31:14.715Z,100511.34
2022-11-18T23:33:41.453Z,100511.32
2022-11-18T23:36:08.923Z,100514.77
2022-11-18T23:38:35.847Z,100514.72
2022-11-18T23:41:04.462Z,100509.44
2022-11-18T23:43:31.489Z,100508.08
2022-11-18T23:45:58.392Z,100510.61
2022-11-18T23:48:25.761Z,100512.08
2022-11-18T23:50:56.208Z,100510.54
2022-11-18T23:53:23.369Z,100510.11
2022-11-18T23:55:49.965Z,100509.85
2022-11-18T23:58:16.761Z,100514.02
